Time;durP1;ratioP1;P1;durP2;ratioP2;P2;SDS_P1;SDS_P2;PMS_P1;PMS_P2;Temp;Humidity;BMP_temperature;BMP_pressure;BME280_temperature;BME280_humidity;BME280_pressure;Samples;Min_cycle;Max_cycle;Signal;HPM_P1;HPM_P2
2022/09/04 00:01:28;;;;;;;13.68;4.07;;;;;;;;;;5095698;28;20024;-80
2022/09/04 00:04:11;;;;;;;13.65;3.88;;;;;;;;;;5084778;28;20032;-80
2022/09/04 00:06:42;;;;;;;15.93;4.07;;;;;;;;;;5095505;28;20016;-80
2022/09/04 00:09:17;;;;;;;9.13;4.50;;;;;;;;;;5095557;28;20035;-80
2022/09/04 00:11:57;;;;;;;12.50;3.75;;;;;;;;;;5095530;28;20107;-80
2022/09/04 00:14:32;;;;;;;8.20;4.07;;;;;;;;;;5095345;28;20441;-80
2022/09/04 00:17:03;;;;;;;6.40;3.80;;;;;;;;;;5095352;28;20110;-80
2022/09/04 00:19:29;;;;;;;7.88;4.30;;;;;;;;;;5100873;28;20055;-80
2022/09/04 00:22:00;;;;;;;6.00;3.63;;;;;;;;;;5115741;28;20024;-78
2022/09/04 00:24:34;;;;;;;9.57;3.75;;;;;;;;;;5115080;28;20487;-77
2022/09/04 00:27:03;;;;;;;7.22;4.07;;;;;;;;;;5115055;28;20020;-78
2022/09/04 00:29:35;;;;;;;9.25;3.80;;;;;;;;;;5115113;28;20030;-77
2022/09/04 00:32:19;;;;;;;7.93;3.80;;;;;;;;;;5115037;28;20046;-77
2022/09/04 00:34:50;;;;;;;10.60;4.05;;;;;;;;;;5114730;28;20285;-77
2022/09/04 00:37:20;;;;;;;8.30;4.03;;;;;;;;;;5096247;28;20020;-77
2022/09/04 00:40:02;;;;;;;9.98;3.90;;;;;;;;;;5115045;28;20346;-77
2022/09/04 00:42:37;;;;;;;7.00;3.50;;;;;;;;;;5096126;28;20054;-77
2022/09/04 00:45:09;;;;;;;6.35;3.92;;;;;;;;;;5096238;28;20043;-77
2022/09/04 00:47:54;;;;;;;7.15;4.00;;;;;;;;;;5114427;28;20106;-77
2022/09/04 00:50:21;;;;;;;6.57;3.70;;;;;;;;;;5114507;28;20030;-77
2022/09/04 00:52:57;;;;;;;5.65;3.88;;;;;;;;;;5114476;28;20027;-77
2022/09/04 00:55:31;;;;;;;8.68;4.00;;;;;;;;;;5114504;28;20024;-77
2022/09/04 00:58:15;;;;;;;6.90;3.80;;;;;;;;;;5114129;28;20030;-77
2022/09/04 01:00:41;;;;;;;8.75;4.00;;;;;;;;;;5114217;28;20020;-77
2022/09/04 01:03:07;;;;;;;7.78;4.22;;;;;;;;;;5095599;28;20358;-77
2022/09/04 01:05:46;;;;;;;6.10;4.57;;;;;;;;;;5114184;28;20027;-77
2022/09/04 01:08:22;;;;;;;5.80;4.05;;;;;;;;;;5095496;28;20462;-78
2022/09/04 01:10:59;;;;;;;7.25;4.35;;;;;;;;;;5112728;28;20044;-77
2022/09/04 01:13:52;;;;;;;9.82;4.97;;;;;;;;;;5095530;28;20024;-77
2022/09/04 01:16:25;;;;;;;12.30;4.22;;;;;;;;;;5057945;28;20065;-77
2022/09/04 01:19:01;;;;;;;6.35;4.70;;;;;;;;;;5113901;28;20030;-77
2022/09/04 01:21:50;;;;;;;10.38;4.70;;;;;;;;;;5113850;28;20038;-77
2022/09/04 01:24:31;;;;;;;13.50;4.50;;;;;;;;;;5095374;28;20469;-77
2022/09/04 01:27:36;;;;;;;6.23;3.87;;;;;;;;;;5113990;28;20016;-77
2022/09/04 01:30:07;;;;;;;8.55;4.80;;;;;;;;;;5030971;28;20112;-78
2022/09/04 01:32:52;;;;;;;7.40;4.67;;;;;;;;;;5014469;28;20057;-77
2022/09/04 01:35:36;;;;;;;6.18;4.05;;;;;;;;;;5065655;28;20036;-78
2022/09/04 01:38:09;;;;;;;6.97;4.40;;;;;;;;;;5095189;28;20019;-78
2022/09/04 01:40:56;;;;;;;10.68;5.15;;;;;;;;;;5105232;28;20028;-78
2022/09/04 01:43:22;;;;;;;5.63;3.83;;;;;;;;;;5085327;28;20027;-77
2022/09/04 01:45:52;;;;;;;9.27;4.40;;;;;;;;;;5113517;28;20111;-77
2022/09/04 01:48:21;;;;;;;6.03;4.15;;;;;;;;;;5113436;28;20097;-77
2022/09/04 01:50:51;;;;;;;7.35;4.28;;;;;;;;;;5113615;28;20350;-78
2022/09/04 01:53:20;;;;;;;12.50;4.78;;;;;;;;;;5113263;28;20065;-78
2022/09/04 01:55:53;;;;;;;6.95;4.70;;;;;;;;;;5113265;28;20030;-78
2022/09/04 01:58:19;;;;;;;6.35;4.18;;;;;;;;;;5113438;28;20065;-77
2022/09/04 02:00:53;;;;;;;6.68;4.30;;;;;;;;;;5113339;28;20016;-77
2022/09/04 02:03:24;;;;;;;6.47;4.20;;;;;;;;;;5113409;28;20016;-77
2022/09/04 02:06:13;;;;;;;11.30;5.13;;;;;;;;;;5094765;28;20115;-77
2022/09/04 02:08:51;;;;;;;7.05;4.90;;;;;;;;;;5094659;28;20077;-77
2022/09/04 02:11:25;;;;;;;9.70;5.03;;;;;;;;;;5112789;28;20047;-77
2022/09/04 02:14:13;;;;;;;9.30;4.90;;;;;;;;;;5112917;28;20028;-77
2022/09/04 02:16:52;;;;;;;9.77;5.43;;;;;;;;;;5094753;28;20038;-77
2022/09/04 02:19:34;;;;;;;8.50;5.15;;;;;;;;;;5090877;28;20020;-78
2022/09/04 02:22:11;;;;;;;10.02;6.15;;;;;;;;;;5073829;28;20028;-77
2022/09/04 02:24:52;;;;;;;13.70;6.78;;;;;;;;;;5092586;28;20048;-78
2022/09/04 02:27:18;;;;;;;14.05;6.75;;;;;;;;;;5073583;28;20094;-78
2022/09/04 02:29:44;;;;;;;12.35;6.88;;;;;;;;;;5092250;28;20039;-77
2022/09/04 02:32:20;;;;;;;10.65;6.78;;;;;;;;;;5092278;28;20024;-78
2022/09/04 02:34:54;;;;;;;11.40;7.75;;;;;;;;;;5073574;28;20024;-77
2022/09/04 02:37:26;;;;;;;12.77;7.50;;;;;;;;;;5092095;28;20024;-78
2022/09/04 02:40:11;;;;;;;12.50;7.40;;;;;;;;;;5092334;28;20020;-78
2022/09/04 02:42:55;;;;;;;11.82;7.53;;;;;;;;;;5093512;28;20099;-77
2022/09/04 02:45:30;;;;;;;12.40;8.00;;;;;;;;;;5094247;28;20027;-77
2022/09/04 02:48:12;;;;;;;12.65;8.18;;;;;;;;;;5112449;28;20353;-77
2022/09/04 02:50:48;;;;;;;10.50;7.13;;;;;;;;;;5112602;28;20020;-77
2022/09/04 02:53:44;;;;;;;11.68;7.25;;;;;;;;;;5093604;28;20031;-78
2022/09/04 02:56:13;;;;;;;11.82;8.25;;;;;;;;;;5021991;28;20677;-78
2022/09/04 02:58:48;;;;;;;13.52;7.93;;;;;;;;;;5112290;28;20026;-77
2022/09/04 03:01:27;;;;;;;11.95;8.15;;;;;;;;;;5111495;28;20353;-78
2022/09/04 03:04:01;;;;;;;12.00;9.48;;;;;;;;;;5091710;28;20055;-77
2022/09/04 03:06:43;;;;;;;15.70;8.35;;;;;;;;;;5091489;28;20099;-78
2022/09/04 03:09:12;;;;;;;12.90;8.13;;;;;;;;;;5091667;28;20115;-77
2022/09/04 03:11:40;;;;;;;13.13;8.60;;;;;;;;;;5091467;28;20047;-78
2022/09/04 03:14:33;;;;;;;13.48;9.02;;;;;;;;;;5091601;28;20028;-78
2022/09/04 03:17:14;;;;;;;12.73;8.40;;;;;;;;;;5082655;28;20066;-78
2022/09/04 03:19:50;;;;;;;15.80;9.35;;;;;;;;;;5091657;28;20477;-77
2022/09/04 03:22:23;;;;;;;13.02;9.25;;;;;;;;;;5073152;28;20032;-77
2022/09/04 03:25:07;;;;;;;16.23;9.30;;;;;;;;;;5091523;28;20485;-77
2022/09/04 03:27:34;;;;;;;16.40;10.60;;;;;;;;;;5091545;28;20024;-78
2022/09/04 03:30:09;;;;;;;14.15;9.45;;;;;;;;;;5091844;28;20035;-77
2022/09/04 03:32:53;;;;;;;18.15;9.20;;;;;;;;;;5091379;28;20081;-77
2022/09/04 03:35:27;;;;;;;14.13;10.02;;;;;;;;;;5076958;28;20023;-78
2022/09/04 03:37:53;;;;;;;15.75;10.55;;;;;;;;;;5095719;28;20073;-77
2022/09/04 03:40:40;;;;;;;14.38;10.25;;;;;;;;;;5095549;28;20020;-78
2022/09/04 03:43:18;;;;;;;16.20;10.57;;;;;;;;;;5099711;28;20054;-77
2022/09/04 03:45:58;;;;;;;21.50;10.80;;;;;;;;;;5115976;28;20042;-78
2022/09/04 03:48:43;;;;;;;16.00;10.90;;;;;;;;;;5097393;28;20418;-77
2022/09/04 03:51:33;;;;;;;17.02;10.98;;;;;;;;;;5116104;28;20548;-77
2022/09/04 03:54:00;;;;;;;15.52;10.55;;;;;;;;;;5115599;28;20102;-77
2022/09/04 03:56:32;;;;;;;18.23;11.98;;;;;;;;;;5115914;28;20020;-77
2022/09/04 03:59:04;;;;;;;22.33;11.02;;;;;;;;;;5097226;28;20031;-78
2022/09/04 04:01:59;;;;;;;15.55;10.57;;;;;;;;;;5115901;28;20091;-77
2022/09/04 04:04:34;;;;;;;19.42;10.80;;;;;;;;;;5025763;28;20045;-78
2022/09/04 04:07:13;;;;;;;18.80;12.00;;;;;;;;;;5115542;28;20385;-77
2022/09/04 04:10:02;;;;;;;15.98;10.95;;;;;;;;;;5115469;28;20028;-77
2022/09/04 04:12:28;;;;;;;18.00;11.00;;;;;;;;;;5115289;28;20049;-77
2022/09/04 04:15:13;;;;;;;16.27;11.45;;;;;;;;;;5097238;28;20039;-77
2022/09/04 04:17:48;;;;;;;21.65;12.52;;;;;;;;;;5115260;28;20064;-78
2022/09/04 04:20:17;;;;;;;18.83;11.23;;;;;;;;;;5084910;28;20043;-77
2022/09/04 04:22:46;;;;;;;29.95;11.88;;;;;;;;;;5094891;28;20024;-78
2022/09/04 04:25:23;;;;;;;21.30;11.35;;;;;;;;;;5094867;28;20350;-78
2022/09/04 04:28:13;;;;;;;23.40;12.70;;;;;;;;;;5094791;28;20024;-77
2022/09/04 04:30:59;;;;;;;19.90;11.88;;;;;;;;;;5094810;28;20031;-78
2022/09/04 04:33:31;;;;;;;17.65;10.93;;;;;;;;;;5075934;28;20448;-77
2022/09/04 04:36:08;;;;;;;19.40;12.63;;;;;;;;;;5094622;28;20036;-77
2022/09/04 04:38:38;;;;;;;21.65;12.45;;;;;;;;;;5094656;28;20034;-78
2022/09/04 04:41:04;;;;;;;20.73;11.82;;;;;;;;;;5094566;28;20487;-77
2022/09/04 04:43:49;;;;;;;20.67;13.30;;;;;;;;;;5080710;28;20538;-77
2022/09/04 04:46:15;;;;;;;23.63;14.07;;;;;;;;;;5096423;28;20039;-78
2022/09/04 04:48:41;;;;;;;22.92;12.75;;;;;;;;;;5114784;28;20028;-77
2022/09/04 04:51:10;;;;;;;22.98;12.10;;;;;;;;;;5114657;28;20377;-77
2022/09/04 04:53:55;;;;;;;20.52;13.48;;;;;;;;;;5096353;28;20031;-77
2022/09/04 04:56:28;;;;;;;23.77;13.27;;;;;;;;;;5114821;28;20495;-78
2022/09/04 04:58:57;;;;;;;22.08;13.70;;;;;;;;;;5114539;28;20201;-77
2022/09/04 05:01:56;;;;;;;20.38;13.63;;;;;;;;;;5112473;28;20107;-77
2022/09/04 05:04:28;;;;;;;19.08;12.90;;;;;;;;;;5060036;28;20040;-77
2022/09/04 05:06:58;;;;;;;18.88;12.70;;;;;;;;;;5094442;28;20120;-77
2022/09/04 05:09:24;;;;;;;28.27;13.32;;;;;;;;;;5094195;28;20428;-79
2022/09/04 05:12:03;;;;;;;23.63;14.55;;;;;;;;;;5075875;28;20077;-77
2022/09/04 05:14:32;;;;;;;27.67;15.00;;;;;;;;;;5094014;28;20032;-77
2022/09/04 05:17:01;;;;;;;27.52;14.90;;;;;;;;;;5094094;28;20099;-77
2022/09/04 05:19:53;;;;;;;21.70;12.95;;;;;;;;;;5094005;28;20043;-77
2022/09/04 05:22:31;;;;;;;25.73;14.55;;;;;;;;;;5090288;28;20028;-77
2022/09/04 05:25:16;;;;;;;24.05;13.10;;;;;;;;;;5093571;28;20035;-78
2022/09/04 05:27:52;;;;;;;21.35;12.73;;;;;;;;;;5094014;28;20024;-77
2022/09/04 05:30:21;;;;;;;22.73;13.73;;;;;;;;;;5093910;28;20043;-77
2022/09/04 05:32:53;;;;;;;21.52;12.20;;;;;;;;;;5093611;28;20462;-77
2022/09/04 05:35:33;;;;;;;25.20;14.10;;;;;;;;;;5093421;28;20059;-78
2022/09/04 05:37:59;;;;;;;20.50;14.05;;;;;;;;;;5075179;28;20051;-78
2022/09/04 05:40:25;;;;;;;24.30;13.05;;;;;;;;;;5093666;28;20020;-78
2022/09/04 05:42:57;;;;;;;22.00;12.75;;;;;;;;;;5093327;28;20020;-78
2022/09/04 05:45:23;;;;;;;20.52;12.98;;;;;;;;;;5112600;28;20036;-77
2022/09/04 05:47:52;;;;;;;19.83;13.45;;;;;;;;;;5095261;28;20055;-78
2022/09/04 05:50:26;;;;;;;24.15;13.20;;;;;;;;;;5095093;28;20097;-77
2022/09/04 05:53:01;;;;;;;23.70;12.85;;;;;;;;;;5113475;28;20098;-77
2022/09/04 05:55:51;;;;;;;20.02;13.73;;;;;;;;;;5095236;28;20036;-77
2022/09/04 05:58:17;;;;;;;22.17;12.15;;;;;;;;;;5113459;28;20020;-77
2022/09/04 06:01:02;;;;;;;22.95;15.00;;;;;;;;;;5113571;28;20103;-78
2022/09/04 06:03:37;;;;;;;23.20;15.20;;;;;;;;;;5113442;28;20438;-77
2022/09/04 06:06:11;;;;;;;24.85;14.80;;;;;;;;;;5113505;28;20461;-78
2022/09/04 06:08:37;;;;;;;21.27;13.23;;;;;;;;;;5113413;28;20024;-77
2022/09/04 06:11:22;;;;;;;20.45;13.40;;;;;;;;;;5113103;28;20123;-77
2022/09/04 06:13:54;;;;;;;26.70;13.48;;;;;;;;;;5113399;28;20385;-78
2022/09/04 06:16:35;;;;;;;22.35;13.48;;;;;;;;;;5113119;28;20089;-78
2022/09/04 06:19:19;;;;;;;22.70;13.90;;;;;;;;;;5093999;28;20030;-77
2022/09/04 06:21:59;;;;;;;20.75;13.48;;;;;;;;;;5113049;28;20049;-78
2022/09/04 06:24:44;;;;;;;22.40;14.27;;;;;;;;;;5113176;28;20115;-77
2022/09/04 06:27:29;;;;;;;20.50;12.98;;;;;;;;;;5094405;28;20073;-78
2022/09/04 06:29:58;;;;;;;20.98;13.30;;;;;;;;;;5112724;28;20116;-78
2022/09/04 06:32:47;;;;;;;21.10;15.13;;;;;;;;;;5112769;28;20039;-77
2022/09/04 06:35:13;;;;;;;21.55;14.95;;;;;;;;;;5083633;28;20031;-77
2022/09/04 06:37:52;;;;;;;22.92;14.73;;;;;;;;;;5112803;28;20095;-78
2022/09/04 06:40:44;;;;;;;21.05;14.88;;;;;;;;;;5094452;28;20085;-77
2022/09/04 06:43:13;;;;;;;21.98;15.35;;;;;;;;;;5090525;28;20110;-78
2022/09/04 06:45:57;;;;;;;20.95;15.30;;;;;;;;;;5112851;28;20027;-77
2022/09/04 06:48:26;;;;;;;21.63;14.73;;;;;;;;;;5112763;28;20076;-77
2022/09/04 06:51:11;;;;;;;22.15;14.77;;;;;;;;;;5112603;28;20031;-77
2022/09/04 06:54:04;;;;;;;25.55;14.15;;;;;;;;;;5094145;28;20031;-77
2022/09/04 06:56:30;;;;;;;24.80;14.90;;;;;;;;;;5112541;28;20102;-77
2022/09/04 06:58:59;;;;;;;20.70;13.82;;;;;;;;;;5093908;28;20476;-78
2022/09/04 07:01:33;;;;;;;18.52;13.93;;;;;;;;;;5091937;28;20119;-78
2022/09/04 07:04:09;;;;;;;20.20;13.15;;;;;;;;;;5091691;28;20024;-77
2022/09/04 07:06:54;;;;;;;15.85;12.20;;;;;;;;;;5073366;28;20082;-77
2022/09/04 07:09:22;;;;;;;20.88;12.10;;;;;;;;;;5072814;28;20063;-78
2022/09/04 07:12:07;;;;;;;18.48;12.85;;;;;;;;;;5073172;28;20429;-77
2022/09/04 07:14:43;;;;;;;20.27;12.57;;;;;;;;;;5091396;28;20042;-77
2022/09/04 07:17:19;;;;;;;17.48;12.82;;;;;;;;;;5073364;28;20426;-77
2022/09/04 07:20:00;;;;;;;20.25;11.55;;;;;;;;;;5091548;28;20474;-77
2022/09/04 07:22:45;;;;;;;15.95;11.77;;;;;;;;;;5073479;28;20020;-78
2022/09/04 07:25:11;;;;;;;14.95;11.48;;;;;;;;;;5091496;28;20028;-78
2022/09/04 07:27:44;;;;;;;18.33;11.77;;;;;;;;;;5091435;28;20487;-78
2022/09/04 07:30:13;;;;;;;16.05;11.30;;;;;;;;;;5091556;28;20020;-78
2022/09/04 07:32:48;;;;;;;18.98;12.13;;;;;;;;;;5091390;28;20028;-77
2022/09/04 07:35:20;;;;;;;16.10;11.75;;;;;;;;;;5091419;28;20217;-78
2022/09/04 07:37:46;;;;;;;;;;;;;;;;;;5091916;28;20539;-78
2022/09/04 07:40:15;;;;;;;17.10;11.38;;;;;;;;;;5077920;28;19904;-78
2022/09/04 07:42:47;;;;;;;15.40;10.80;;;;;;;;;;5093371;28;20042;-78
2022/09/04 07:45:15;;;;;;;;;;;;;;;;;;5112022;28;20528;-77
2022/09/04 07:47:54;;;;;;;16.88;10.20;;;;;;;;;;5111439;28;19904;-78
2022/09/04 07:50:25;;;;;;;16.42;10.40;;;;;;;;;;5111543;28;20053;-78
2022/09/04 07:52:57;;;;;;;15.02;9.85;;;;;;;;;;5093378;28;20023;-77
2022/09/04 07:55:30;;;;;;;16.92;10.38;;;;;;;;;;5092969;28;20047;-78
2022/09/04 07:58:18;;;;;;;19.35;8.82;;;;;;;;;;5093254;28;20027;-77
2022/09/04 08:00:54;;;;;;;15.20;8.82;;;;;;;;;;5093189;28;20023;-78
2022/09/04 08:03:20;;;;;;;17.70;8.73;;;;;;;;;;5111408;28;20416;-78
2022/09/04 08:05:54;;;;;;;13.13;8.90;;;;;;;;;;5111316;28;20460;-78
2022/09/04 08:08:38;;;;;;;22.33;8.75;;;;;;;;;;5111500;28;20039;-78
2022/09/04 08:11:31;;;;;;;17.83;8.30;;;;;;;;;;5111275;28;20051;-78
2022/09/04 08:14:17;;;;;;;14.98;8.20;;;;;;;;;;5107434;28;20047;-78
2022/09/04 08:16:43;;;;;;;17.35;8.68;;;;;;;;;;5093088;28;20039;-78
2022/09/04 08:19:12;;;;;;;12.82;8.55;;;;;;;;;;5108689;28;20024;-78
2022/09/04 08:21:40;;;;;;;9.20;7.30;;;;;;;;;;5094685;28;20548;-78
2022/09/04 08:24:09;;;;;;;16.08;8.23;;;;;;;;;;5094585;28;20107;-78
2022/09/04 08:26:52;;;;;;;15.68;8.45;;;;;;;;;;5094862;28;20016;-78
2022/09/04 08:29:22;;;;;;;12.90;7.60;;;;;;;;;;5094751;28;20031;-78
2022/09/04 08:31:54;;;;;;;13.32;7.68;;;;;;;;;;5094486;28;20416;-78
2022/09/04 08:34:32;;;;;;;12.82;7.18;;;;;;;;;;5076120;28;20025;-78
2022/09/04 08:37:04;;;;;;;8.43;6.65;;;;;;;;;;5094506;28;20018;-78
2022/09/04 08:39:30;;;;;;;;;;;;;;;;;;5076555;28;20362;-78
2022/09/04 08:42:21;;;;;;;10.77;6.63;;;;;;;;;;5094549;28;19904;-78
2022/09/04 08:44:53;;;;;;;10.23;7.05;;;;;;;;;;5101385;28;20024;-78
2022/09/04 08:47:26;;;;;;;10.38;6.82;;;;;;;;;;5114798;28;20070;-78
2022/09/04 08:49:53;;;;;;;11.85;6.28;;;;;;;;;;5114786;28;20023;-78
2022/09/04 08:52:38;;;;;;;9.65;6.30;;;;;;;;;;5115112;28;20111;-78
2022/09/04 08:55:04;;;;;;;9.45;5.78;;;;;;;;;;5114460;28;20028;-78
2022/09/04 08:57:30;;;;;;;11.40;5.95;;;;;;;;;;5114412;28;20578;-78
2022/09/04 09:00:11;;;;;;;14.90;6.68;;;;;;;;;;5095884;28;20094;-78
2022/09/04 09:02:37;;;;;;;10.93;7.03;;;;;;;;;;5114038;28;20039;-78
2022/09/04 09:05:17;;;;;;;8.88;5.78;;;;;;;;;;5114341;28;20028;-78
2022/09/04 09:07:57;;;;;;;8.65;6.10;;;;;;;;;;5096238;28;20016;-78
2022/09/04 09:10:29;;;;;;;9.95;5.45;;;;;;;;;;5113983;28;20039;-78
2022/09/04 09:13:01;;;;;;;10.43;6.53;;;;;;;;;;5114126;28;20024;-78
2022/09/04 09:15:27;;;;;;;;;;;;;;;;;;5114781;28;20031;-78
2022/09/04 09:17:53;;;;;;;10.68;5.53;;;;;;;;;;5114343;28;19915;-78
2022/09/04 09:20:27;;;;;;;10.13;5.97;;;;;;;;;;5113657;28;20090;-78
2022/09/04 09:22:59;;;;;;;9.90;4.90;;;;;;;;;;5113900;28;20020;-78
2022/09/04 09:25:37;;;;;;;7.80;5.20;;;;;;;;;;5113867;28;20470;-78
2022/09/04 09:28:03;;;;;;;7.97;5.32;;;;;;;;;;5095693;28;20482;-78
2022/09/04 09:31:01;;;;;;;10.60;5.78;;;;;;;;;;5113642;28;20027;-78
2022/09/04 09:33:45;;;;;;;8.90;5.60;;;;;;;;;;5068353;28;20054;-78
2022/09/04 09:36:33;;;;;;;8.75;4.90;;;;;;;;;;5113628;28;20031;-78
2022/09/04 09:39:18;;;;;;;7.70;4.90;;;;;;;;;;5095205;28;20027;-78
2022/09/04 09:41:58;;;;;;;9.77;4.40;;;;;;;;;;5077382;28;20111;-78
2022/09/04 09:44:27;;;;;;;8.48;4.30;;;;;;;;;;5095525;28;20020;-78
2022/09/04 09:47:11;;;;;;;7.80;4.75;;;;;;;;;;5113362;28;20087;-78
2022/09/04 09:49:52;;;;;;;14.70;5.13;;;;;;;;;;5113466;28;20031;-78
2022/09/04 09:52:35;;;;;;;5.83;4.37;;;;;;;;;;5113934;28;20020;-78
2022/09/04 09:55:10;;;;;;;5.57;3.90;;;;;;;;;;5094789;28;20050;-78
2022/09/04 09:57:37;;;;;;;8.63;4.55;;;;;;;;;;5113148;28;20054;-78
2022/09/04 10:00:06;;;;;;;8.63;4.45;;;;;;;;;;5094914;28;20058;-78
2022/09/04 10:02:36;;;;;;;7.15;4.50;;;;;;;;;;5113188;28;20020;-79
2022/09/04 10:05:21;;;;;;;10.10;4.70;;;;;;;;;;5094738;28;20027;-79
2022/09/04 10:07:47;;;;;;;6.57;3.17;;;;;;;;;;5094391;28;20034;-78
2022/09/04 10:10:32;;;;;;;9.73;4.32;;;;;;;;;;5112721;28;20472;-78
2022/09/04 10:13:01;;;;;;;8.38;4.03;;;;;;;;;;5113091;28;20363;-78
2022/09/04 10:15:37;;;;;;;5.40;3.45;;;;;;;;;;5113215;28;20419;-78
2022/09/04 10:18:23;;;;;;;8.57;3.85;;;;;;;;;;5113222;28;20027;-79
2022/09/04 10:20:49;;;;;;;5.30;3.20;;;;;;;;;;5096082;28;20024;-78
2022/09/04 10:23:21;;;;;;;5.43;3.25;;;;;;;;;;5092375;28;20028;-78
2022/09/04 10:25:56;;;;;;;5.55;3.20;;;;;;;;;;5074059;28;20054;-78
2022/09/04 10:28:42;;;;;;;5.32;3.05;;;;;;;;;;5074008;28;20035;-78
2022/09/04 10:31:27;;;;;;;5.45;2.35;;;;;;;;;;5060845;28;20043;-78
2022/09/04 10:34:00;;;;;;;7.80;3.80;;;;;;;;;;5073717;28;20028;-78
2022/09/04 10:36:38;;;;;;;6.07;3.30;;;;;;;;;;5092135;28;20172;-78
2022/09/04 10:42:24;;;;;;;5.25;3.00;;;;;;;;;;5092024;28;20078;-78
2022/09/04 10:44:59;;;;;;;6.28;3.15;;;;;;;;;;5076732;28;20091;-78
2022/09/04 10:47:28;;;;;;;6.43;3.35;;;;;;;;;;5112929;28;20039;-83
2022/09/04 10:50:06;;;;;;;6.10;3.25;;;;;;;;;;5113117;28;20060;-83
2022/09/04 10:52:32;;;;;;;5.00;2.58;;;;;;;;;;5112987;28;20031;-83
2022/09/04 10:55:13;;;;;;;10.27;3.08;;;;;;;;;;5113000;28;20023;-83
2022/09/04 10:57:58;;;;;;;5.07;3.10;;;;;;;;;;5113028;28;20016;-83
2022/09/04 11:00:48;;;;;;;4.70;3.17;;;;;;;;;;5112780;28;20232;-83
2022/09/04 11:03:35;;;;;;;7.68;3.53;;;;;;;;;;5095336;28;20474;-83
2022/09/04 11:06:16;;;;;;;8.35;3.35;;;;;;;;;;5092096;28;20032;-83
2022/09/04 11:09:01;;;;;;;7.57;3.83;;;;;;;;;;5092436;28;20020;-83
2022/09/04 11:11:42;;;;;;;6.57;2.80;;;;;;;;;;5092349;28;20052;-83
2022/09/04 11:14:18;;;;;;;5.30;3.10;;;;;;;;;;5092453;28;20695;-83
2022/09/04 11:17:03;;;;;;;7.13;3.65;;;;;;;;;;5092454;28;20090;-83
2022/09/04 11:19:59;;;;;;;8.20;3.72;;;;;;;;;;5092250;28;20034;-83
2022/09/04 11:22:33;;;;;;;4.75;3.10;;;;;;;;;;5092291;28;20051;-83
2022/09/04 11:25:18;;;;;;;6.00;1.92;;;;;;;;;;5092217;28;20050;-83
2022/09/04 11:28:03;;;;;;;3.28;2.08;;;;;;;;;;5092131;28;20087;-83
2022/09/04 11:30:29;;;;;;;4.13;2.20;;;;;;;;;;5092173;28;20107;-83
2022/09/04 11:33:08;;;;;;;13.10;3.40;;;;;;;;;;5073799;28;20020;-82
2022/09/04 11:35:40;;;;;;;8.10;2.28;;;;;;;;;;5091972;28;20028;-83
2022/09/04 11:38:27;;;;;;;4.80;2.72;;;;;;;;;;5092171;28;20054;-83
2022/09/04 11:41:06;;;;;;;4.70;2.45;;;;;;;;;;5102807;28;20518;-83
2022/09/04 11:43:48;;;;;;;5.10;1.95;;;;;;;;;;5112481;28;20027;-83
2022/09/04 11:46:32;;;;;;;4.25;2.00;;;;;;;;;;5112397;28;20538;-83
2022/09/04 11:49:12;;;;;;;5.10;2.67;;;;;;;;;;5111956;28;20020;-83
2022/09/04 11:51:47;;;;;;;4.88;1.90;;;;;;;;;;5112687;28;20054;-83
2022/09/04 11:54:16;;;;;;;5.75;2.78;;;;;;;;;;5112610;28;20454;-83
2022/09/04 11:56:42;;;;;;;6.00;2.90;;;;;;;;;;5116266;28;20397;-83
2022/09/04 11:59:08;;;;;;;4.10;2.88;;;;;;;;;;5116521;28;20024;-82
2022/09/04 12:01:48;;;;;;;4.28;2.38;;;;;;;;;;5116483;28;20141;-83
2022/09/04 12:04:23;;;;;;;5.95;2.70;;;;;;;;;;5116218;28;20072;-83
2022/09/04 12:07:11;;;;;;;6.53;3.22;;;;;;;;;;5116087;28;20023;-82
2022/09/04 12:09:55;;;;;;;8.50;2.60;;;;;;;;;;5116143;28;20027;-83
2022/09/04 12:12:30;;;;;;;4.72;2.80;;;;;;;;;;5116106;28;20035;-83
2022/09/04 12:15:14;;;;;;;9.60;3.60;;;;;;;;;;5116124;28;20027;-83
2022/09/04 12:17:48;;;;;;;5.63;3.10;;;;;;;;;;5116178;28;20072;-82
2022/09/04 12:20:15;;;;;;;6.97;3.13;;;;;;;;;;5104336;28;20103;-82
2022/09/04 12:22:49;;;;;;;5.05;2.70;;;;;;;;;;5095783;28;20012;-82
2022/09/04 12:25:33;;;;;;;9.05;3.15;;;;;;;;;;5095785;28;20532;-82
2022/09/04 12:28:27;;;;;;;7.30;2.60;;;;;;;;;;5095576;28;20028;-82
2022/09/04 12:31:12;;;;;;;5.57;2.78;;;;;;;;;;5077131;28;20474;-83
2022/09/04 12:33:41;;;;;;;4.38;2.20;;;;;;;;;;5095295;28;20024;-83
2022/09/04 12:36:12;;;;;;;5.35;2.42;;;;;;;;;;5095015;28;20051;-83
2022/09/04 12:38:48;;;;;;;5.73;2.23;;;;;;;;;;5094968;28;20126;-83
2022/09/04 12:41:37;;;;;;;2.55;1.95;;;;;;;;;;5094947;28;20024;-82
2022/09/04 12:44:03;;;;;;;3.08;1.70;;;;;;;;;;5081810;28;20064;-82
2022/09/04 12:46:49;;;;;;;6.88;2.45;;;;;;;;;;5094833;28;20027;-82
2022/09/04 12:49:33;;;;;;;4.60;2.63;;;;;;;;;;5094810;28;20032;-83
2022/09/04 12:52:07;;;;;;;3.45;2.15;;;;;;;;;;5095192;28;20024;-82
2022/09/04 12:54:33;;;;;;;3.65;2.00;;;;;;;;;;5094720;28;20032;-82
2022/09/04 12:57:07;;;;;;;6.25;2.20;;;;;;;;;;5094969;28;20435;-82
2022/09/04 12:59:43;;;;;;;4.63;2.08;;;;;;;;;;5094890;28;20072;-82
2022/09/04 13:02:22;;;;;;;3.92;1.88;;;;;;;;;;5094621;28;20024;-82
2022/09/04 13:05:04;;;;;;;4.93;1.58;;;;;;;;;;5094477;28;20020;-82
2022/09/04 13:07:39;;;;;;;2.80;1.60;;;;;;;;;;5092824;28;20020;-79
2022/09/04 13:10:05;;;;;;;4.57;1.88;;;;;;;;;;5093955;28;20071;-79
2022/09/04 13:13:01;;;;;;;3.35;2.00;;;;;;;;;;5093905;28;20031;-79
2022/09/04 13:15:30;;;;;;;4.25;1.65;;;;;;;;;;4988108;28;20104;-79
2022/09/04 13:18:15;;;;;;;6.50;2.10;;;;;;;;;;5093735;28;20027;-79
2022/09/04 13:20:49;;;;;;;5.40;1.70;;;;;;;;;;5093755;28;20020;-79
2022/09/04 13:23:15;;;;;;;2.83;1.45;;;;;;;;;;5093845;28;20465;-78
2022/09/04 13:25:48;;;;;;;3.08;1.80;;;;;;;;;;5093656;28;20450;-78
2022/09/04 13:28:40;;;;;;;5.38;1.50;;;;;;;;;;5075491;28;20173;-78
2022/09/04 13:31:18;;;;;;;5.05;1.52;;;;;;;;;;5075451;28;20024;-78
2022/09/04 13:33:54;;;;;;;5.47;2.50;;;;;;;;;;5093520;28;20032;-78
2022/09/04 13:36:34;;;;;;;3.10;1.52;;;;;;;;;;5093415;28;20098;-79
2022/09/04 13:39:00;;;;;;;5.43;1.50;;;;;;;;;;5093612;28;20070;-78
2022/09/04 13:41:36;;;;;;;3.63;1.50;;;;;;;;;;5093486;28;20029;-79
2022/09/04 13:44:08;;;;;;;2.97;1.50;;;;;;;;;;5093250;28;20024;-79
2022/09/04 13:46:36;;;;;;;5.78;1.67;;;;;;;;;;5105439;28;20043;-79
2022/09/04 13:49:04;;;;;;;4.10;1.65;;;;;;;;;;5113664;28;20097;-78
2022/09/04 13:51:33;;;;;;;2.00;1.30;;;;;;;;;;5114111;28;20053;-78
2022/09/04 13:54:06;;;;;;;6.53;1.63;;;;;;;;;;5113809;28;20061;-79
2022/09/04 13:56:43;;;;;;;3.20;1.80;;;;;;;;;;5113786;28;20106;-79
2022/09/04 13:59:10;;;;;;;2.83;1.38;;;;;;;;;;5113553;28;20019;-79
2022/09/04 14:01:44;;;;;;;4.40;1.50;;;;;;;;;;5113540;28;20020;-79
2022/09/04 14:04:13;;;;;;;1.95;1.50;;;;;;;;;;5113457;28;20026;-79
2022/09/04 14:06:39;;;;;;;2.20;1.30;;;;;;;;;;5113668;28;20092;-79
2022/09/04 14:09:05;;;;;;;2.30;1.40;;;;;;;;;;5113523;28;20034;-78
2022/09/04 14:11:38;;;;;;;6.10;1.50;;;;;;;;;;5113315;28;20481;-79
2022/09/04 14:14:10;;;;;;;3.80;1.58;;;;;;;;;;5113352;28;20019;-79
2022/09/04 14:16:37;;;;;;;2.58;1.35;;;;;;;;;;5113162;28;20090;-79
2022/09/04 14:19:12;;;;;;;2.75;1.40;;;;;;;;;;5110626;28;20035;-79
2022/09/04 14:21:57;;;;;;;2.78;1.40;;;;;;;;;;5092768;28;20023;-79
2022/09/04 14:24:32;;;;;;;2.30;1.20;;;;;;;;;;5092661;28;20114;-79
2022/09/04 14:26:58;;;;;;;5.03;1.30;;;;;;;;;;5074540;28;20028;-79
2022/09/04 14:29:53;;;;;;;2.05;0.95;;;;;;;;;;5074159;28;20027;-78
2022/09/04 14:32:38;;;;;;;6.93;1.42;;;;;;;;;;5092859;28;20028;-79
2022/09/04 14:35:11;;;;;;;5.28;1.60;;;;;;;;;;5092509;28;20035;-79
2022/09/04 14:37:48;;;;;;;3.00;1.40;;;;;;;;;;5074407;28;20068;-79
2022/09/04 14:40:28;;;;;;;1.50;1.10;;;;;;;;;;5074263;28;20024;-79
2022/09/04 14:43:12;;;;;;;3.85;1.30;;;;;;;;;;5092437;28;20020;-79
2022/09/04 14:45:38;;;;;;;2.05;1.30;;;;;;;;;;5074760;28;20051;-82
2022/09/04 14:48:10;;;;;;;1.52;1.17;;;;;;;;;;5092977;28;20028;-82
2022/09/04 14:50:48;;;;;;;4.32;2.10;;;;;;;;;;5093005;28;20020;-82
2022/09/04 14:53:19;;;;;;;1.65;1.20;;;;;;;;;;5092898;28;20367;-83
2022/09/04 14:56:09;;;;;;;3.33;1.40;;;;;;;;;;5074748;28;20044;-82
2022/09/04 14:58:40;;;;;;;4.25;1.13;;;;;;;;;;5082173;28;20028;-82
2022/09/04 15:01:20;;;;;;;2.90;1.20;;;;;;;;;;5092697;28;20381;-82
2022/09/04 15:03:46;;;;;;;3.88;1.00;;;;;;;;;;5092484;28;20048;-82
2022/09/04 15:06:16;;;;;;;5.13;1.33;;;;;;;;;;5092490;28;20055;-82
2022/09/04 15:08:43;;;;;;;3.42;1.20;;;;;;;;;;5092325;28;20016;-83
2022/09/04 15:11:12;;;;;;;2.17;1.10;;;;;;;;;;5092252;28;20047;-83
2022/09/04 15:14:08;;;;;;;1.92;1.30;;;;;;;;;;5092334;28;20111;-82
2022/09/04 15:16:45;;;;;;;3.95;1.40;;;;;;;;;;5057385;28;20096;-82
2022/09/04 15:19:18;;;;;;;2.00;1.30;;;;;;;;;;5092404;28;20037;-82
2022/09/04 15:21:46;;;;;;;2.63;1.45;;;;;;;;;;5092524;28;20462;-83
2022/09/04 15:24:15;;;;;;;2.78;1.42;;;;;;;;;;5092493;28;20052;-82
2022/09/04 15:26:45;;;;;;;1.88;1.38;;;;;;;;;;5092688;28;20073;-82
2022/09/04 15:29:16;;;;;;;1.80;1.20;;;;;;;;;;5091768;28;20020;-82